createdAt,value
2022-07-29T00:01:19.661Z,54.59
2022-07-29T00:02:51.558Z,54.77
2022-07-29T00:04:23.194Z,54.73
2022-07-29T00:05:55.040Z,54.90
2022-07-29T00:07:26.860Z,55.06
2022-07-29T00:08:58.663Z,55.27
2022-07-29T00:10:30.403Z,55.13
2022-07-29T00:12:02.174Z,55.50
2022-07-29T00:13:33.743Z,55.28
2022-07-29T00:15:05.699Z,54.81
2022-07-29T00:16:37.308Z,54.92
2022-07-29T00:18:08.932Z,54.50
2022-07-29T00:19:43.800Z,54.64
2022-07-29T00:21:17.237Z,54.48
2022-07-29T00:22:49.229Z,54.81
2022-07-29T00:24:20.882Z,54.63
2022-07-29T00:25:52.494Z,54.51
2022-07-29T00:27:25.949Z,54.62
2022-07-29T00:29:23.685Z,54.54
2022-07-29T00:30:49.194Z,54.25
2022-07-29T00:32:20.797Z,54.45
2022-07-29T00:33:52.359Z,54.58
2022-07-29T00:35:42.872Z,54.71
2022-07-29T00:37:14.611Z,54.77
2022-07-29T00:38:47.242Z,54.68
2022-07-29T00:40:18.825Z,54.59
2022-07-29T00:41:55.387Z,54.59
2022-07-29T00:43:27.052Z,54.79
2022-07-29T00:44:58.659Z,54.93
2022-07-29T00:46:30.336Z,54.85
2022-07-29T00:48:02.249Z,54.82
2022-07-29T00:49:34.051Z,55.01
2022-07-29T00:51:06.093Z,55.04
2022-07-29T00:52:38.592Z,55.12
2022-07-29T00:54:10.690Z,55.47
2022-07-29T00:55:42.245Z,55.52
2022-07-29T00:57:14.068Z,55.46
2022-07-29T00:58:46.878Z,55.47
2022-07-29T01:00:21.955Z,55.40
2022-07-29T01:01:53.777Z,55.35
2022-07-29T01:03:25.462Z,55.54
2022-07-29T01:04:58.137Z,55.53
2022-07-29T01:06:29.838Z,55.65
2022-07-29T01:08:01.536Z,55.45
2022-07-29T01:09:42.950Z,55.36
2022-07-29T01:11:18.607Z,55.40
2022-07-29T01:12:50.617Z,55.27
2022-07-29T01:14:22.246Z,54.96
2022-07-29T01:15:58.109Z,54.95
2022-07-29T01:17:29.887Z,54.90
2022-07-29T01:19:09.303Z,55.11
2022-07-29T01:20:53.066Z,54.99
2022-07-29T01:22:43.630Z,54.97
2022-07-29T01:24:33.430Z,55.09
2022-07-29T01:26:23.897Z,55.24
2022-07-29T01:28:16.028Z,55.21
2022-07-29T01:29:58.625Z,55.44
2022-07-29T01:31:38.555Z,55.56
2022-07-29T01:33:47.231Z,55.76
2022-07-29T01:35:20.522Z,55.63
2022-07-29T01:36:53.991Z,56.03
2022-07-29T01:38:26.141Z,56.00
2022-07-29T01:39:58.580Z,56.18
2022-07-29T01:41:31.354Z,56.16
2022-07-29T01:43:04.440Z,55.98
2022-07-29T01:44:37.167Z,56.21
2022-07-29T01:46:10.819Z,56.13
2022-07-29T01:48:11.676Z,55.81
2022-07-29T01:49:44.779Z,55.87
2022-07-29T01:51:20.408Z,55.86
2022-07-29T01:52:57.241Z,56.01
2022-07-29T01:54:49.956Z,56.00
2022-07-29T01:56:21.584Z,56.04
2022-07-29T01:57:53.256Z,56.02
2022-07-29T01:59:24.881Z,56.03
2022-07-29T02:00:57.395Z,56.11
2022-07-29T02:02:29.272Z,56.21
2022-07-29T02:04:01.097Z,56.18
2022-07-29T02:05:32.646Z,56.19
2022-07-29T02:07:06.076Z,56.15
2022-07-29T02:08:37.792Z,56.25
2022-07-29T02:10:09.572Z,56.25
2022-07-29T02:11:41.574Z,56.57
2022-07-29T02:13:13.138Z,56.53
2022-07-29T02:14:49.328Z,56.40
2022-07-29T02:16:21.344Z,56.42
2022-07-29T02:17:55.533Z,56.24
2022-07-29T02:19:27.235Z,56.22
2022-07-29T02:20:59.946Z,56.25
2022-07-29T02:22:31.838Z,56.41
2022-07-29T02:24:03.835Z,56.35
2022-07-29T02:25:37.677Z,56.22
2022-07-29T02:27:10.158Z,56.30
2022-07-29T02:28:41.732Z,56.25
2022-07-29T02:30:16.036Z,56.29
2022-07-29T02:31:50.885Z,56.39
2022-07-29T02:33:25.437Z,56.32
2022-07-29T02:35:00.913Z,56.37
2022-07-29T02:36:36.105Z,56.32
2022-07-29T02:38:30.163Z,56.35
2022-07-29T02:40:02.173Z,56.27
2022-07-29T02:41:38.648Z,56.33
2022-07-29T02:43:10.253Z,56.15
2022-07-29T02:44:41.903Z,56.25
2022-07-29T02:46:29.304Z,56.34
2022-07-29T02:48:01.584Z,56.46
2022-07-29T02:49:35.819Z,56.42
2022-07-29T02:51:13.476Z,56.44
2022-07-29T02:53:08.916Z,56.55
2022-07-29T02:54:40.605Z,56.53
2022-07-29T02:56:12.855Z,56.48
2022-07-29T02:57:54.819Z,56.51
2022-07-29T02:59:28.234Z,56.46
2022-07-29T03:01:01.202Z,56.40
2022-07-29T03:02:35.924Z,56.67
2022-07-29T03:04:07.629Z,56.63
2022-07-29T03:05:39.217Z,56.77
2022-07-29T03:07:11.276Z,56.79
2022-07-29T03:08:42.874Z,56.87
2022-07-29T03:10:14.590Z,56.73
2022-07-29T03:11:49.972Z,56.74
2022-07-29T03:13:22.593Z,56.94
2022-07-29T03:14:54.744Z,56.85
2022-07-29T03:16:26.490Z,57.05
2022-07-29T03:17:58.195Z,57.07
2022-07-29T03:19:29.860Z,56.97
2022-07-29T03:21:01.574Z,57.08
2022-07-29T03:22:33.251Z,57.08
2022-07-29T03:24:10.100Z,57.03
2022-07-29T03:25:42.349Z,57.11
2022-07-29T03:27:14.207Z,56.90
2022-07-29T03:28:45.987Z,56.91
2022-07-29T03:30:22.154Z,57.23
2022-07-29T03:31:54.292Z,57.26
2022-07-29T03:33:27.166Z,57.19
2022-07-29T03:34:59.508Z,57.18
2022-07-29T03:36:31.155Z,57.22
2022-07-29T03:38:02.833Z,57.23
2022-07-29T03:39:35.987Z,57.32
2022-07-29T03:41:09.030Z,57.48
2022-07-29T03:42:41.441Z,57.40
2022-07-29T03:44:15.946Z,57.23
2022-07-29T03:45:49.361Z,57.25
2022-07-29T03:47:23.497Z,57.13
2022-07-29T03:49:16.182Z,57.32
2022-07-29T03:50:47.858Z,57.48
2022-07-29T03:52:19.419Z,57.41
2022-07-29T03:53:51.208Z,57.60
2022-07-29T03:55:23.119Z,57.48
2022-07-29T03:56:55.022Z,57.54
2022-07-29T03:58:27.631Z,57.70
2022-07-29T03:59:59.414Z,57.63
2022-07-29T04:01:32.048Z,57.52
2022-07-29T04:03:04.283Z,57.47
2022-07-29T04:04:36.134Z,57.45
2022-07-29T04:06:07.991Z,57.32
2022-07-29T04:07:39.534Z,57.62
2022-07-29T04:09:11.312Z,57.55
2022-07-29T04:10:43.102Z,57.48
2022-07-29T04:12:14.889Z,57.46
2022-07-29T04:13:46.584Z,57.34
2022-07-29T04:15:19.361Z,57.37
2022-07-29T04:16:50.907Z,57.35
2022-07-29T04:18:23.141Z,57.41
2022-07-29T04:19:54.691Z,57.52
2022-07-29T04:21:26.343Z,57.60
2022-07-29T04:22:58.238Z,57.34
2022-07-29T04:24:30.398Z,57.29
2022-07-29T04:26:02.364Z,57.48
2022-07-29T04:27:34.394Z,57.38
2022-07-29T04:29:05.963Z,57.65
2022-07-29T04:30:38.288Z,57.52
2022-07-29T04:32:10.150Z,57.42
2022-07-29T04:33:42.010Z,57.63
2022-07-29T04:35:14.061Z,57.60
2022-07-29T04:36:45.923Z,57.63
2022-07-29T04:38:17.587Z,58.05
2022-07-29T04:39:49.661Z,57.77
2022-07-29T04:41:21.803Z,57.99
2022-07-29T04:42:54.343Z,57.84
2022-07-29T04:44:28.761Z,57.74
2022-07-29T04:46:01.606Z,57.60
2022-07-29T04:47:33.485Z,57.47
2022-07-29T04:49:05.430Z,57.49
2022-07-29T04:50:39.560Z,57.49
2022-07-29T04:52:11.273Z,57.46
2022-07-29T04:53:43.046Z,57.24
2022-07-29T04:55:14.879Z,57.16
2022-07-29T04:56:47.604Z,57.21
2022-07-29T04:58:19.804Z,57.30
2022-07-29T04:59:51.402Z,57.22
2022-07-29T05:01:23.031Z,57.29
2022-07-29T05:02:55.134Z,57.09
2022-07-29T05:04:27.018Z,57.17
2022-07-29T05:05:58.671Z,57.15
2022-07-29T05:07:31.262Z,57.21
2022-07-29T05:09:03.706Z,56.95
2022-07-29T05:10:39.343Z,57.17
2022-07-29T05:12:11.015Z,57.05
2022-07-29T05:13:45.809Z,57.09
2022-07-29T05:15:18.852Z,57.03
2022-07-29T05:16:52.250Z,56.91
2022-07-29T05:18:26.184Z,56.86
2022-07-29T05:19:58.034Z,56.85
2022-07-29T05:21:29.773Z,56.77
2022-07-29T05:23:01.681Z,56.66
2022-07-29T05:24:33.496Z,56.73
2022-07-29T05:26:05.276Z,56.88
2022-07-29T05:27:38.372Z,56.80
2022-07-29T05:29:42.530Z,57.16
2022-07-29T05:31:01.773Z,57.04
2022-07-29T05:32:33.468Z,56.69
2022-07-29T05:34:05.081Z,57.10
2022-07-29T05:35:38.236Z,56.86
2022-07-29T05:37:10.056Z,57.01
2022-07-29T05:38:42.058Z,56.89
2022-07-29T05:40:13.870Z,56.91
2022-07-29T05:41:50.116Z,56.69
2022-07-29T05:43:24.257Z,56.41
2022-07-29T05:44:56.201Z,56.38
2022-07-29T05:46:28.016Z,56.21
2022-07-29T05:47:59.701Z,56.33
2022-07-29T05:49:31.597Z,56.01
2022-07-29T05:51:03.407Z,55.97
2022-07-29T05:52:35.143Z,55.98
2022-07-29T05:54:07.044Z,55.86
2022-07-29T05:55:38.735Z,55.55
2022-07-29T05:57:20.753Z,55.52
2022-07-29T05:58:52.596Z,55.76
2022-07-29T06:00:24.867Z,55.95
2022-07-29T06:01:58.269Z,55.78
2022-07-29T06:03:30.360Z,55.89
2022-07-29T06:05:02.429Z,55.46
2022-07-29T06:06:34.827Z,55.78
2022-07-29T06:08:09.568Z,55.23
2022-07-29T06:09:41.460Z,55.33
2022-07-29T06:11:19.813Z,55.03
2022-07-29T06:12:55.265Z,55.04
2022-07-29T06:22:38.469Z,55.31
2022-07-29T06:24:11.625Z,54.92
2022-07-29T06:25:43.508Z,55.49
2022-07-29T06:27:15.299Z,55.37
2022-07-29T06:28:47.023Z,54.97
2022-07-29T06:30:18.947Z,54.93
2022-07-29T06:31:50.848Z,54.87
2022-07-29T06:33:22.960Z,54.47
2022-07-29T06:35:06.907Z,54.44
2022-07-29T06:36:46.423Z,54.24
2022-07-29T06:38:31.041Z,54.34
2022-07-29T06:40:24.272Z,54.81
2022-07-29T06:41:55.976Z,54.61
2022-07-29T06:43:32.820Z,54.18
2022-07-29T06:45:09.225Z,54.50
2022-07-29T06:46:41.134Z,54.46
2022-07-29T06:48:13.467Z,54.57
2022-07-29T06:49:47.537Z,54.12
2022-07-29T06:51:22.833Z,53.88
2022-07-29T06:52:55.548Z,53.96
2022-07-29T06:54:27.406Z,54.03
2022-07-29T06:56:02.425Z,53.70
2022-07-29T06:57:34.679Z,53.65
2022-07-29T06:59:07.492Z,53.71
2022-07-29T07:00:39.871Z,53.32
2022-07-29T07:02:11.672Z,53.50
2022-07-29T07:03:43.540Z,53.56
2022-07-29T07:05:16.719Z,53.40
2022-07-29T07:06:48.633Z,53.33
2022-07-29T07:08:20.650Z,53.16
2022-07-29T07:09:52.333Z,53.00
2022-07-29T07:11:24.056Z,52.74
2022-07-29T07:12:58.615Z,52.97
2022-07-29T07:14:34.207Z,52.69
2022-07-29T07:16:09.427Z,52.88
2022-07-29T07:23:02.311Z,52.63
2022-07-29T07:24:35.122Z,52.51
2022-07-29T07:26:09.095Z,52.50
2022-07-29T07:27:41.214Z,52.39
2022-07-29T07:29:15.982Z,52.09
2022-07-29T07:30:48.740Z,51.63
2022-07-29T07:32:21.109Z,51.81
2022-07-29T07:33:54.715Z,51.81
2022-07-29T07:35:27.888Z,51.42
2022-07-29T07:37:00.360Z,51.15
2022-07-29T07:38:32.901Z,50.88
2022-07-29T07:40:05.469Z,51.10
2022-07-29T07:41:37.450Z,50.91
2022-07-29T07:43:09.218Z,50.77
2022-07-29T07:45:03.770Z,50.29
2022-07-29T07:46:34.224Z,50.63
2022-07-29T07:48:06.899Z,50.16
2022-07-29T07:49:39.108Z,50.42
2022-07-29T07:51:13.830Z,50.05
2022-07-29T07:52:51.547Z,50.20
2022-07-29T07:54:23.599Z,49.98
2022-07-29T07:56:12.827Z,49.72
2022-07-29T07:57:50.630Z,49.93
2022-07-29T07:59:23.145Z,50.00
2022-07-29T08:01:01.902Z,49.51
2022-07-29T08:02:37.610Z,49.52
2022-07-29T08:04:13.654Z,49.37
2022-07-29T08:10:56.960Z,48.73
2022-07-29T08:12:29.622Z,49.07
2022-07-29T08:14:02.512Z,48.78
2022-07-29T08:15:34.893Z,48.42
2022-07-29T08:17:07.024Z,48.35
2022-07-29T08:18:39.853Z,48.19
2022-07-29T08:20:11.999Z,47.97
2022-07-29T08:21:43.970Z,47.94
2022-07-29T08:23:15.797Z,47.69
2022-07-29T08:24:54.869Z,47.49
2022-07-29T08:26:27.709Z,47.63
2022-07-29T08:27:59.755Z,47.72
2022-07-29T08:29:31.756Z,47.05
2022-07-29T08:31:09.918Z,47.17
2022-07-29T08:32:54.162Z,46.94
2022-07-29T08:41:13.312Z,46.32
2022-07-29T08:42:45.417Z,46.28
2022-07-29T08:44:18.554Z,46.15
2022-07-29T08:45:59.738Z,46.25
2022-07-29T08:47:32.289Z,46.28
2022-07-29T08:49:05.023Z,45.86
2022-07-29T08:50:37.502Z,45.79
2022-07-29T08:52:10.682Z,45.61
2022-07-29T08:53:46.515Z,45.60
2022-07-29T08:55:21.413Z,45.47
2022-07-29T08:56:54.915Z,45.55
2022-07-29T08:58:28.082Z,45.55
2022-07-29T09:00:02.545Z,45.63
2022-07-29T09:01:42.925Z,45.57
2022-07-29T09:03:17.899Z,45.19
2022-07-29T09:04:50.169Z,45.13
2022-07-29T09:06:22.802Z,45.13
2022-07-29T09:07:54.766Z,45.14
2022-07-29T09:09:26.370Z,45.70
2022-07-29T09:11:01.217Z,45.34
2022-07-29T09:12:38.211Z,45.44
2022-07-29T09:14:11.135Z,45.16
2022-07-29T09:15:42.956Z,44.86
2022-07-29T09:17:16.460Z,44.15
2022-07-29T09:18:48.314Z,44.37
2022-07-29T09:20:21.329Z,44.58
2022-07-29T09:21:59.516Z,44.67
2022-07-29T09:23:31.205Z,44.59
2022-07-29T09:25:03.091Z,44.38
2022-07-29T09:26:36.028Z,44.45
2022-07-29T09:28:09.169Z,44.31
2022-07-29T09:29:41.063Z,43.94
2022-07-29T09:31:13.192Z,43.98
2022-07-29T09:32:58.002Z,43.75
2022-07-29T09:34:32.531Z,43.89
2022-07-29T09:36:08.466Z,43.88
2022-07-29T09:37:40.697Z,43.82
2022-07-29T09:39:12.522Z,43.54
2022-07-29T09:40:45.350Z,43.22
2022-07-29T09:42:18.378Z,43.34
2022-07-29T09:43:57.384Z,42.88
2022-07-29T09:45:33.073Z,43.25
2022-07-29T09:47:08.256Z,43.36
2022-07-29T09:48:40.221Z,43.29
2022-07-29T09:50:12.556Z,42.80
2022-07-29T09:51:45.885Z,42.72
2022-07-29T09:53:34.266Z,42.89
2022-07-29T09:55:06.835Z,42.38
2022-07-29T09:56:42.104Z,42.25
2022-07-29T09:58:17.728Z,42.69
2022-07-29T09:59:59.645Z,42.43
2022-07-29T10:01:31.919Z,42.65
2022-07-29T10:03:06.038Z,42.13
2022-07-29T10:04:39.496Z,42.12
2022-07-29T10:06:11.782Z,42.36
2022-07-29T10:07:50.566Z,42.40
2022-07-29T10:09:25.932Z,42.47
2022-07-29T10:11:09.508Z,42.11
2022-07-29T10:12:51.173Z,42.42
2022-07-29T10:14:22.879Z,42.23
2022-07-29T10:15:54.916Z,41.98
2022-07-29T10:17:27.261Z,41.40
2022-07-29T10:18:59.371Z,41.87
2022-07-29T10:20:31.307Z,41.25
2022-07-29T10:22:04.434Z,41.37
2022-07-29T10:23:46.449Z,41.31
2022-07-29T10:25:19.252Z,40.66
2022-07-29T10:26:51.314Z,40.73
2022-07-29T10:28:26.872Z,41.08
2022-07-29T10:29:59.173Z,40.49
2022-07-29T10:31:40.882Z,40.27
2022-07-29T10:33:32.141Z,39.97
2022-07-29T10:35:13.672Z,40.38
2022-07-29T10:36:48.907Z,40.02
2022-07-29T10:38:46.068Z,39.63
2022-07-29T10:40:45.117Z,39.62
2022-07-29T10:42:29.832Z,39.16
2022-07-29T10:44:16.100Z,39.64
2022-07-29T10:45:50.220Z,39.18
2022-07-29T10:47:23.311Z,39.74
2022-07-29T10:49:15.211Z,39.56
2022-07-29T10:51:04.187Z,39.17
2022-07-29T10:52:52.617Z,39.07
2022-07-29T10:54:44.673Z,39.37
2022-07-29T10:56:35.064Z,38.51
2022-07-29T10:58:26.480Z,38.84
2022-07-29T11:00:10.604Z,38.60
2022-07-29T11:01:46.401Z,38.01
2022-07-29T11:03:40.855Z,37.81
2022-07-29T11:05:32.279Z,37.62
2022-07-29T11:07:13.513Z,37.36
2022-07-29T11:08:47.058Z,37.88
2022-07-29T11:10:20.257Z,37.58
2022-07-29T11:11:52.168Z,37.27
2022-07-29T11:13:43.231Z,37.40
2022-07-29T11:15:18.781Z,37.54
2022-07-29T11:17:00.402Z,37.17
2022-07-29T11:18:32.046Z,37.03
2022-07-29T11:20:27.065Z,37.18
2022-07-29T11:21:59.828Z,36.79
2022-07-29T11:23:33.482Z,36.39
2022-07-29T11:25:16.591Z,36.85
2022-07-29T11:27:10.470Z,36.63
2022-07-29T11:28:51.111Z,36.37
2022-07-29T11:30:29.898Z,36.47
2022-07-29T11:32:18.139Z,36.09
2022-07-29T11:33:56.386Z,36.04
2022-07-29T11:35:37.865Z,36.13
2022-07-29T11:37:12.938Z,36.19
2022-07-29T11:38:45.218Z,35.79
2022-07-29T11:40:17.315Z,35.54
2022-07-29T11:41:50.059Z,35.32
2022-07-29T11:43:44.890Z,35.52
2022-07-29T11:45:43.739Z,35.45
2022-07-29T11:47:13.571Z,35.42
2022-07-29T11:48:46.604Z,35.21
2022-07-29T11:50:36.364Z,35.02
2022-07-29T11:52:08.366Z,35.03
2022-07-29T11:53:47.861Z,34.79
2022-07-29T11:55:24.537Z,34.61
2022-07-29T11:57:04.430Z,34.80
2022-07-29T11:58:36.276Z,34.77
2022-07-29T12:00:12.593Z,34.38
2022-07-29T12:02:18.364Z,34.56
2022-07-29T12:03:51.427Z,34.39
2022-07-29T12:07:02.572Z,34.28
2022-07-29T12:07:32.658Z,33.92
2022-07-29T12:09:11.301Z,33.83
2022-07-29T12:10:48.303Z,33.94
2022-07-29T12:12:20.665Z,33.87
2022-07-29T12:13:56.377Z,33.71
2022-07-29T12:15:45.682Z,33.49
2022-07-29T12:17:30.489Z,33.67
2022-07-29T12:19:04.066Z,33.42
2022-07-29T12:20:35.805Z,33.48
2022-07-29T12:22:08.788Z,33.38
2022-07-29T12:23:40.750Z,33.66
2022-07-29T12:25:32.602Z,33.44
2022-07-29T12:27:05.338Z,33.30
2022-07-29T12:28:41.022Z,33.20
2022-07-29T12:30:13.821Z,33.19
2022-07-29T12:31:57.966Z,32.88
2022-07-29T12:33:30.750Z,32.82
2022-07-29T12:35:06.250Z,32.85
2022-07-29T12:36:38.284Z,32.84
2022-07-29T12:38:10.955Z,32.66
2022-07-29T12:39:42.777Z,32.50
2022-07-29T12:41:15.523Z,32.29
2022-07-29T12:43:06.051Z,32.53
2022-07-29T12:44:47.727Z,32.32
2022-07-29T12:46:19.890Z,32.41
2022-07-29T12:47:54.437Z,32.20
2022-07-29T12:49:27.500Z,32.31
2022-07-29T12:51:00.971Z,32.29
2022-07-29T12:52:38.441Z,32.20
2022-07-29T12:54:11.837Z,32.19
2022-07-29T12:55:46.056Z,31.84
2022-07-29T12:57:20.089Z,32.04
2022-07-29T12:58:53.719Z,31.64
2022-07-29T13:00:25.518Z,31.69
2022-07-29T13:01:59.168Z,31.60
2022-07-29T13:03:43.109Z,31.26
2022-07-29T13:05:48.695Z,31.28
2022-07-29T13:07:54.121Z,31.30
2022-07-29T13:09:17.206Z,31.31
2022-07-29T13:10:48.992Z,31.29
2022-07-29T13:12:22.393Z,30.88
2022-07-29T13:14:06.523Z,30.68
2022-07-29T13:15:39.761Z,30.83
2022-07-29T13:17:12.396Z,30.72
2022-07-29T13:18:44.107Z,30.77
2022-07-29T13:20:16.372Z,30.58
2022-07-29T13:21:48.051Z,30.66
2022-07-29T13:23:19.802Z,30.50
2022-07-29T13:24:54.379Z,30.57
2022-07-29T13:26:26.134Z,30.55
2022-07-29T13:27:57.992Z,30.65
2022-07-29T13:29:31.753Z,30.60
2022-07-29T13:31:04.779Z,30.29
2022-07-29T13:32:37.620Z,30.30
2022-07-29T13:34:09.654Z,30.25
2022-07-29T13:35:41.616Z,30.28
2022-07-29T13:37:13.570Z,30.44
2022-07-29T13:38:45.617Z,30.24
2022-07-29T13:40:17.348Z,30.18
2022-07-29T13:41:49.358Z,30.34
2022-07-29T13:43:21.416Z,30.11
2022-07-29T13:44:53.465Z,30.05
2022-07-29T13:46:25.403Z,30.05
2022-07-29T13:47:57.931Z,29.92
2022-07-29T13:49:29.936Z,29.82
2022-07-29T13:51:01.602Z,29.83
2022-07-29T13:52:33.696Z,29.78
2022-07-29T13:54:05.895Z,29.73
2022-07-29T13:55:38.039Z,29.67
2022-07-29T13:57:10.105Z,29.72
2022-07-29T13:58:41.800Z,29.52
2022-07-29T14:00:14.153Z,29.31
2022-07-29T14:01:46.154Z,29.29
2022-07-29T14:03:18.536Z,29.47
2022-07-29T14:04:51.377Z,29.43
2022-07-29T14:06:23.772Z,29.27
2022-07-29T14:07:56.445Z,29.52
2022-07-29T14:09:28.378Z,29.51
2022-07-29T14:11:00.550Z,29.33
2022-07-29T14:12:33.635Z,29.33
2022-07-29T14:14:05.857Z,29.33
2022-07-29T14:15:39.296Z,29.47
2022-07-29T14:17:11.966Z,29.38
2022-07-29T14:18:44.175Z,29.26
2022-07-29T14:20:17.097Z,29.14
2022-07-29T14:21:49.537Z,29.31
2022-07-29T14:23:22.043Z,29.03
2022-07-29T14:24:53.814Z,28.96
2022-07-29T14:26:26.296Z,29.05
2022-07-29T14:27:59.184Z,29.35
2022-07-29T14:29:37.054Z,29.21
2022-07-29T14:31:12.810Z,29.17
2022-07-29T14:32:44.526Z,29.09
2022-07-29T14:34:16.710Z,29.06
2022-07-29T14:35:48.897Z,29.40
2022-07-29T14:37:21.038Z,29.19
2022-07-29T14:38:53.615Z,29.28
2022-07-29T14:40:27.070Z,28.89
2022-07-29T14:42:00.352Z,28.85
2022-07-29T14:43:32.346Z,29.06
2022-07-29T14:45:05.133Z,28.95
2022-07-29T14:46:37.432Z,29.23
2022-07-29T14:48:09.334Z,28.86
2022-07-29T14:49:41.080Z,29.34
2022-07-29T14:51:12.946Z,29.16
2022-07-29T14:52:44.961Z,29.33
2022-07-29T14:54:16.759Z,29.18
2022-07-29T14:55:48.687Z,28.96
2022-07-29T14:57:21.063Z,28.76
2022-07-29T14:58:52.846Z,29.27
2022-07-29T15:00:24.564Z,29.28
2022-07-29T15:01:56.987Z,28.89
2022-07-29T15:03:33.781Z,29.24
2022-07-29T15:05:06.267Z,29.20
2022-07-29T15:06:39.091Z,29.35
2022-07-29T15:08:11.101Z,29.26
2022-07-29T15:09:49.887Z,29.40
2022-07-29T15:11:22.028Z,29.46
2022-07-29T15:12:53.856Z,29.54
2022-07-29T15:14:25.684Z,29.24
2022-07-29T15:16:00.218Z,29.13
2022-07-29T15:17:32.417Z,29.25
2022-07-29T15:19:04.702Z,29.64
2022-07-29T15:20:37.226Z,29.36
2022-07-29T15:22:09.368Z,29.51
2022-07-29T15:23:41.077Z,29.67
2022-07-29T15:25:13.221Z,29.73
2022-07-29T15:26:44.992Z,29.85
2022-07-29T15:28:16.616Z,29.37
2022-07-29T15:29:48.230Z,29.98
2022-07-29T15:31:22.924Z,29.51
2022-07-29T15:32:55.982Z,30.00
2022-07-29T15:34:29.606Z,29.91
2022-07-29T15:36:02.173Z,29.97
2022-07-29T15:37:48.354Z,30.00
2022-07-29T15:39:21.514Z,30.04
2022-07-29T15:40:53.172Z,29.64
2022-07-29T15:42:24.795Z,29.71
2022-07-29T15:43:56.713Z,29.86
2022-07-29T15:45:31.972Z,29.94
2022-07-29T15:47:05.139Z,29.76
2022-07-29T15:48:38.782Z,29.83
2022-07-29T15:50:15.822Z,30.35
2022-07-29T15:51:47.788Z,30.24
2022-07-29T15:53:19.950Z,30.05
2022-07-29T15:54:51.918Z,29.86
2022-07-29T15:56:24.266Z,30.24
2022-07-29T15:58:00.486Z,30.19
2022-07-29T15:59:32.943Z,30.04
2022-07-29T16:01:04.656Z,30.07
2022-07-29T16:02:36.546Z,30.21
2022-07-29T16:04:08.620Z,30.30
2022-07-29T16:05:40.655Z,30.22
2022-07-29T16:07:12.582Z,30.31
2022-07-29T16:08:47.004Z,30.24
2022-07-29T16:10:19.369Z,30.40
2022-07-29T16:11:53.891Z,30.44
2022-07-29T16:13:26.398Z,30.46
2022-07-29T16:14:58.942Z,30.64
2022-07-29T16:16:31.189Z,30.61
2022-07-29T16:18:03.085Z,30.61
2022-07-29T16:19:35.159Z,30.65
2022-07-29T16:21:08.276Z,30.70
2022-07-29T16:22:40.081Z,30.72
2022-07-29T16:24:12.266Z,30.68
2022-07-29T16:25:59.323Z,30.94
2022-07-29T16:27:37.472Z,30.97
2022-07-29T16:29:09.637Z,31.05
2022-07-29T16:30:41.584Z,31.27
2022-07-29T16:32:13.402Z,31.18
2022-07-29T16:33:54.176Z,30.95
2022-07-29T16:35:39.243Z,31.05
2022-07-29T16:37:11.622Z,31.33
2022-07-29T16:38:47.229Z,31.28
2022-07-29T16:40:19.119Z,31.36
2022-07-29T16:41:50.915Z,31.43
2022-07-29T16:43:22.723Z,31.52
2022-07-29T16:44:54.593Z,31.36
2022-07-29T16:46:27.009Z,31.44
2022-07-29T16:48:00.973Z,31.50
2022-07-29T16:49:33.113Z,31.38
2022-07-29T16:51:07.813Z,31.43
2022-07-29T16:52:40.113Z,31.50
2022-07-29T16:54:12.095Z,31.46
2022-07-29T16:55:43.722Z,31.44
2022-07-29T16:57:15.432Z,31.65
2022-07-29T16:58:47.339Z,32.03
2022-07-29T17:00:19.081Z,32.18
2022-07-29T17:01:50.846Z,31.70
2022-07-29T17:03:23.037Z,32.20
2022-07-29T17:04:54.973Z,31.96
2022-07-29T17:06:26.746Z,32.31
2022-07-29T17:07:58.789Z,31.93
2022-07-29T17:09:30.957Z,32.22
2022-07-29T17:11:02.828Z,32.35
2022-07-29T17:12:36.887Z,32.42
2022-07-29T17:14:09.165Z,32.17
2022-07-29T17:15:42.722Z,32.02
2022-07-29T17:17:16.673Z,32.58
2022-07-29T17:18:55.776Z,32.51
2022-07-29T17:20:27.777Z,32.21
2022-07-29T17:22:08.376Z,32.48
2022-07-29T17:23:43.882Z,32.29
2022-07-29T17:25:20.706Z,32.74
2022-07-29T17:26:53.067Z,32.82
2022-07-29T17:28:24.967Z,32.75
2022-07-29T17:29:57.033Z,32.45
2022-07-29T17:31:29.064Z,32.61
2022-07-29T17:33:01.104Z,32.77
2022-07-29T17:34:33.015Z,32.82
2022-07-29T17:36:23.287Z,32.81
2022-07-29T17:37:55.018Z,33.05
2022-07-29T17:39:26.669Z,33.10
2022-07-29T17:40:58.522Z,32.84
2022-07-29T17:42:30.263Z,33.04
2022-07-29T17:44:02.063Z,32.77
2022-07-29T17:45:48.765Z,32.65
2022-07-29T17:47:22.276Z,32.73
2022-07-29T17:48:55.807Z,33.13
2022-07-29T17:50:27.686Z,32.78
2022-07-29T17:52:01.073Z,33.21
2022-07-29T17:53:32.949Z,32.88
2022-07-29T17:55:05.114Z,32.85
2022-07-29T17:56:37.322Z,32.86
2022-07-29T17:58:09.491Z,33.24
2022-07-29T17:59:41.271Z,33.30
2022-07-29T18:01:13.428Z,33.30
2022-07-29T18:02:45.291Z,33.29
2022-07-29T18:04:20.428Z,33.38
2022-07-29T18:05:54.828Z,33.01
2022-07-29T18:07:26.803Z,33.29
2022-07-29T18:08:58.656Z,33.35
2022-07-29T18:10:36.318Z,33.12
2022-07-29T18:12:08.551Z,33.22
2022-07-29T18:13:41.663Z,33.05
2022-07-29T18:15:13.810Z,33.39
2022-07-29T18:16:45.684Z,33.21
2022-07-29T18:18:18.586Z,33.33
2022-07-29T18:19:53.214Z,33.16
2022-07-29T18:21:42.667Z,33.36
2022-07-29T18:23:26.526Z,33.46
2022-07-29T18:24:58.616Z,33.20
2022-07-29T18:26:30.513Z,33.32
2022-07-29T18:28:02.337Z,33.22
2022-07-29T18:29:34.175Z,33.28
2022-07-29T18:31:05.887Z,33.27
2022-07-29T18:32:39.772Z,33.38
2022-07-29T18:34:11.435Z,33.39
2022-07-29T18:35:52.437Z,33.46
2022-07-29T18:38:02.311Z,33.29
2022-07-29T18:39:36.646Z,33.58
2022-07-29T18:41:08.259Z,33.15
2022-07-29T18:42:40.992Z,33.32
2022-07-29T18:44:17.133Z,33.41
2022-07-29T18:45:49.819Z,33.54
2022-07-29T18:47:22.174Z,33.38
2022-07-29T18:48:53.870Z,33.40
2022-07-29T18:50:29.598Z,33.59
2022-07-29T18:52:02.259Z,33.50
2022-07-29T18:53:36.841Z,33.55
2022-07-29T18:55:08.922Z,33.56
2022-07-29T18:56:40.834Z,33.45
2022-07-29T18:58:15.483Z,33.63
2022-07-29T18:59:47.203Z,33.52
2022-07-29T19:01:18.879Z,33.40
2022-07-29T19:02:50.855Z,33.53
2022-07-29T19:04:23.019Z,33.65
2022-07-29T19:05:54.786Z,33.59
2022-07-29T19:07:27.065Z,33.62
2022-07-29T19:08:59.191Z,33.53
2022-07-29T19:10:31.136Z,33.57
2022-07-29T19:12:03.803Z,33.59
2022-07-29T19:13:40.416Z,33.67
2022-07-29T19:15:13.094Z,33.75
2022-07-29T19:16:52.231Z,33.75
2022-07-29T19:18:24.455Z,33.85
2022-07-29T19:19:56.321Z,33.91
2022-07-29T19:21:28.468Z,33.76
2022-07-29T19:23:00.215Z,33.86
2022-07-29T19:24:31.879Z,33.71
2022-07-29T19:26:03.555Z,34.04
2022-07-29T19:27:40.593Z,33.77
2022-07-29T19:29:12.721Z,33.92
2022-07-29T19:30:44.396Z,33.81
2022-07-29T19:32:24.990Z,33.92
2022-07-29T19:33:57.261Z,33.96
2022-07-29T19:35:31.609Z,34.04
2022-07-29T19:37:04.119Z,33.98
2022-07-29T19:38:35.841Z,34.00
2022-07-29T19:40:07.959Z,33.94
2022-07-29T19:41:39.770Z,34.02
2022-07-29T19:43:50.586Z,34.05
2022-07-29T19:45:03.497Z,34.15
2022-07-29T19:46:35.264Z,34.00
2022-07-29T19:48:07.364Z,34.04
2022-07-29T19:49:40.855Z,34.07
2022-07-29T19:51:12.665Z,34.26
2022-07-29T19:52:45.401Z,34.30
2022-07-29T19:54:18.499Z,34.38
2022-07-29T19:55:50.275Z,34.35
2022-07-29T19:57:21.997Z,34.40
2022-07-29T19:58:56.471Z,34.40
2022-07-29T20:00:28.691Z,34.36
2022-07-29T20:02:02.021Z,34.51
2022-07-29T20:03:34.020Z,34.34
2022-07-29T20:05:06.220Z,34.58
2022-07-29T20:06:38.016Z,34.62
2022-07-29T20:08:09.570Z,34.57
2022-07-29T20:09:41.599Z,34.64
2022-07-29T20:11:13.432Z,34.72
2022-07-29T20:12:45.967Z,34.59
2022-07-29T20:14:21.080Z,34.61
2022-07-29T20:15:52.725Z,34.52
2022-07-29T20:17:25.110Z,34.80
2022-07-29T20:18:57.191Z,34.68
2022-07-29T20:20:30.051Z,34.71
2022-07-29T20:22:01.873Z,34.79
2022-07-29T20:23:34.040Z,34.85
2022-07-29T20:25:07.239Z,34.78
2022-07-29T20:26:38.966Z,34.68
2022-07-29T20:28:10.806Z,34.85
2022-07-29T20:29:42.817Z,34.77
2022-07-29T20:31:16.871Z,34.91
2022-07-29T20:32:48.738Z,34.74
2022-07-29T20:34:20.512Z,35.05
2022-07-29T20:35:52.813Z,34.89
2022-07-29T20:37:24.423Z,34.95
2022-07-29T20:38:56.492Z,35.05
2022-07-29T20:40:29.559Z,35.16
2022-07-29T20:42:01.256Z,35.12
2022-07-29T20:43:36.082Z,34.92
2022-07-29T20:45:11.278Z,35.14